Silia — WDG2034 — position and weather

sailwx.info

Track history (hours):
 
Tides and Currents Weather Stations Pressure Air Temp Water Temp Dewpoint Dewpoint Depression Visibility Wind Speed Wind Dir Waves Ship Positions

Silia

Owner: greger pacific marine, napa, CA. More information available from US FCC via Universal Licensing System and Coast Guard Vessel Documentation Center.

Last reported at 2017-Nov-10 10:50 UTC. Time now 2017-Dec-17 12:10 UTC.
Position N 38°04' W 122°13'.
Warning: this ship's position is 37 days out of date.

Length 17 m; draft 3 m.

Type: Tug. MMSI: 367511460.

Date/timePositionNaut miles runAvg speedWind from/ knotsBaromVisibWave heightAir tempDewpointWater temp
2017-Nov-10 10:50N 38°04' W 122°13'5 4.5
2017-Nov-10 09:48N 38°02' W 122°19'2 4.7
2017-Nov-10 09:19N 38°01' W 122°22'6 4.8
2017-Nov-10 08:05N 37°56' W 122°26'0 4.7
2017-Nov-10 08:01N 37°56' W 122°26'2 4.8
2017-Nov-10 07:30N 37°54' W 122°24'3 5.1
2017-Nov-10 07:01N 37°51' W 122°23'3 5.8
2017-Nov-10 06:31N 37°49' W 122°21'3 6.3
2017-Nov-10 06:01N 37°46' W 122°21'3 6.8
2017-Nov-10 05:31N 37°42' W 122°21'3 6.9
2017-Nov-10 05:01N 37°39' W 122°19'4 7.0
2017-Nov-10 04:30N 37°36' W 122°17'2 3.3
2017-Nov-10 04:00N 37°35' W 122°15'0 0.0
2017-Nov-10 03:30N 37°35' W 122°15'0 0.0
2017-Nov-10 03:00N 37°35' W 122°15'0 0.0
2017-Nov-10 02:31N 37°35' W 122°15'0 0.0
2017-Nov-10 02:00N 37°35' W 122°15'0 0.1
2017-Nov-10 01:30N 37°35' W 122°15'0 0.0
2017-Nov-10 01:00N 37°35' W 122°15'0 0.0
2017-Nov-10 00:30N 37°35' W 122°15'0 0.0
2017-Nov-10 00:00N 37°35' W 122°15'0 0.0
2017-Nov-09 23:30N 37°35' W 122°15'3 6.7
2017-Nov-09 23:00N 37°38' W 122°18'4 7.8
2017-Nov-09 22:30N 37°41' W 122°19'4 8.0
2017-Nov-09 22:01N 37°45' W 122°19'1 3.0
2017-Nov-09 21:30N 37°47' W 122°18'4 7.5
2017-Nov-09 21:01N 37°49' W 122°22'4 8.8
2017-Nov-09 20:30N 37°53' W 122°24'4 7.8
2017-Nov-09 20:00N 37°57' W 122°26'6 7.9
2017-Nov-09 19:18N 38°02' W 122°22'7 9.9
2017-Nov-09 18:36N 38°04' W 122°14'210.3
2017-Nov-09 18:25N 38°03' W 122°11'  
Track history (hours):
 
Tides and Currents Weather Stations Pressure Air Temp Water Temp Dewpoint Dewpoint Depression Visibility Wind Speed Wind Dir Waves Ship Positions

Silia

Owner: greger pacific marine, napa, CA. More information available from US FCC via Universal Licensing System and Coast Guard Vessel Documentation Center.

Last reported at 2017-Nov-10 10:50 UTC. Time now 2017-Dec-17 12:10 UTC.
Position N 38°04' W 122°13'.
Warning: this ship's position is 37 days out of date.

Length 17 m; draft 3 m.

Type: Tug. MMSI: 367511460.

Date/timePositionNaut miles runAvg speedWind from/ knotsBaromVisibWave heightAir tempDewpointWater temp
2017-Nov-10 10:50N 38°04' W 122°13'5 4.5
2017-Nov-10 09:48N 38°02' W 122°19'2 4.7
2017-Nov-10 09:19N 38°01' W 122°22'6 4.8
2017-Nov-10 08:05N 37°56' W 122°26'0 4.7
2017-Nov-10 08:01N 37°56' W 122°26'2 4.8
2017-Nov-10 07:30N 37°54' W 122°24'3 5.1
2017-Nov-10 07:01N 37°51' W 122°23'3 5.8
2017-Nov-10 06:31N 37°49' W 122°21'3 6.3
2017-Nov-10 06:01N 37°46' W 122°21'3 6.8
2017-Nov-10 05:31N 37°42' W 122°21'3 6.9
2017-Nov-10 05:01N 37°39' W 122°19'4 7.0
2017-Nov-10 04:30N 37°36' W 122°17'2 3.3
2017-Nov-10 04:00N 37°35' W 122°15'0 0.0
2017-Nov-10 03:30N 37°35' W 122°15'0 0.0
2017-Nov-10 03:00N 37°35' W 122°15'0 0.0
2017-Nov-10 02:31N 37°35' W 122°15'0 0.0
2017-Nov-10 02:00N 37°35' W 122°15'0 0.1
2017-Nov-10 01:30N 37°35' W 122°15'0 0.0
2017-Nov-10 01:00N 37°35' W 122°15'0 0.0
2017-Nov-10 00:30N 37°35' W 122°15'0 0.0
2017-Nov-10 00:00N 37°35' W 122°15'0 0.0
2017-Nov-09 23:30N 37°35' W 122°15'3 6.7
2017-Nov-09 23:00N 37°38' W 122°18'4 7.8
2017-Nov-09 22:30N 37°41' W 122°19'4 8.0
2017-Nov-09 22:01N 37°45' W 122°19'1 3.0
2017-Nov-09 21:30N 37°47' W 122°18'4 7.5
2017-Nov-09 21:01N 37°49' W 122°22'4 8.8
2017-Nov-09 20:30N 37°53' W 122°24'4 7.8
2017-Nov-09 20:00N 37°57' W 122°26'6 7.9
2017-Nov-09 19:18N 38°02' W 122°22'7 9.9
2017-Nov-09 18:36N 38°04' W 122°14'210.3
2017-Nov-09 18:25N 38°03' W 122°11'  

Dump ship's entire track history